Time;durP1;ratioP1;P1;durP2;ratioP2;P2;SDS_P1;SDS_P2;PMS_P1;PMS_P2;Temp;Humidity;BMP_temperature;BMP_pressure;BME280_temperature;BME280_humidity;BME280_pressure;Samples;Min_cycle;Max_cycle;Signal;HPM_P1;HPM_P2
2022/10/02 00:00:29;;;;;;;11.10;2.60;;;;;;;;;;3348563;42;20630;-63
2022/10/02 00:02:59;;;;;;;9.30;2.80;;;;;;;;;;3347528;42;20093;-61
2022/10/02 00:05:33;;;;;;;9.43;2.42;;;;;;;;;;3347238;42;20144;-63
2022/10/02 00:08:19;;;;;;;10.05;2.70;;;;;;;;;;3338841;42;20172;-61
2022/10/02 00:10:52;;;;;;;10.43;3.03;;;;;;;;;;3345365;42;20502;-63
2022/10/02 00:13:30;;;;;;;8.82;2.45;;;;;;;;;;3345296;42;20084;-63
2022/10/02 00:15:55;;;;;;;9.30;2.53;;;;;;;;;;3344819;42;20084;-60
2022/10/02 00:18:24;;;;;;;12.27;3.10;;;;;;;;;;3348503;42;20093;-62
2022/10/02 00:20:53;;;;;;;7.68;2.42;;;;;;;;;;3347231;42;20544;-60
2022/10/02 00:23:32;;;;;;;9.63;3.35;;;;;;;;;;3348990;42;20576;-60
2022/10/02 00:26:02;;;;;;;9.60;2.72;;;;;;;;;;3346952;42;20088;-62
2022/10/02 00:28:41;;;;;;;9.07;2.50;;;;;;;;;;3347191;42;20085;-60
2022/10/02 00:31:37;;;;;;;11.93;2.72;;;;;;;;;;3347274;42;20100;-63
2022/10/02 00:34:08;;;;;;;11.40;2.90;;;;;;;;;;3348689;42;20108;-59
2022/10/02 00:36:53;;;;;;;11.02;2.75;;;;;;;;;;3349757;42;20100;-60
2022/10/02 00:39:48;;;;;;;9.05;2.45;;;;;;;;;;3346853;42;20081;-60
2022/10/02 00:42:23;;;;;;;9.87;3.00;;;;;;;;;;3346733;42;20091;-60
2022/10/02 00:45:01;;;;;;;8.13;2.60;;;;;;;;;;3348103;42;20096;-62
2022/10/02 00:47:34;;;;;;;7.53;2.30;;;;;;;;;;3348331;42;20089;-60
2022/10/02 00:50:21;;;;;;;10.98;2.90;;;;;;;;;;3346653;42;20094;-63
2022/10/02 00:53:25;;;;;;;9.10;2.85;;;;;;;;;;3347404;42;20167;-59
2022/10/02 00:56:04;;;;;;;11.73;3.00;;;;;;;;;;3347206;42;20081;-59
2022/10/02 00:58:59;;;;;;;6.93;2.67;;;;;;;;;;3346873;42;20096;-60
2022/10/02 01:01:52;;;;;;;6.70;3.05;;;;;;;;;;3339185;42;20468;-60
2022/10/02 01:04:37;;;;;;;9.52;2.90;;;;;;;;;;3344078;42;20096;-62
2022/10/02 01:07:04;;;;;;;7.35;2.55;;;;;;;;;;3344031;42;20147;-60
2022/10/02 01:09:30;;;;;;;10.57;2.87;;;;;;;;;;3343911;42;20720;-59
2022/10/02 01:11:56;;;;;;;11.35;3.00;;;;;;;;;;3347752;42;20093;-59
2022/10/02 01:14:31;;;;;;;7.63;2.35;;;;;;;;;;3346624;42;20156;-60
2022/10/02 01:16:57;;;;;;;9.25;2.67;;;;;;;;;;3347256;42;20104;-59
2022/10/02 01:19:29;;;;;;;10.03;2.50;;;;;;;;;;3348249;42;20526;-61
2022/10/02 01:22:08;;;;;;;14.50;2.63;;;;;;;;;;3340085;42;20583;-60
2022/10/02 01:24:42;;;;;;;8.68;2.80;;;;;;;;;;3346205;42;20098;-61
2022/10/02 01:27:08;;;;;;;8.93;2.53;;;;;;;;;;3348220;42;20085;-61
2022/10/02 01:29:34;;;;;;;12.30;2.80;;;;;;;;;;3348362;42;20152;-62
2022/10/02 01:32:00;;;;;;;9.82;2.50;;;;;;;;;;3346933;42;20091;-64
2022/10/02 01:34:26;;;;;;;13.43;2.97;;;;;;;;;;3348127;42;20127;-62
2022/10/02 01:36:52;;;;;;;10.15;3.00;;;;;;;;;;3347160;42;20511;-62
2022/10/02 01:39:18;;;;;;;10.37;3.07;;;;;;;;;;3346840;42;20154;-62
2022/10/02 01:41:44;;;;;;;10.27;3.25;;;;;;;;;;3348581;42;20498;-61
2022/10/02 01:44:10;;;;;;;7.88;2.65;;;;;;;;;;3348316;42;20100;-62
2022/10/02 01:46:45;;;;;;;10.45;3.13;;;;;;;;;;3346924;42;20115;-61
2022/10/02 01:49:30;;;;;;;12.27;2.83;;;;;;;;;;3348092;42;20519;-63
2022/10/02 01:52:11;;;;;;;10.95;2.97;;;;;;;;;;3340613;42;20092;-61
2022/10/02 01:54:55;;;;;;;8.55;2.60;;;;;;;;;;3349712;42;20152;-63
2022/10/02 01:57:33;;;;;;;12.00;2.70;;;;;;;;;;3352204;42;20092;-60
2022/10/02 02:00:12;;;;;;;7.00;2.50;;;;;;;;;;3345812;42;20081;-61
2022/10/02 02:03:04;;;;;;;12.80;2.90;;;;;;;;;;3347087;42;20124;-64
2022/10/02 02:05:42;;;;;;;9.10;2.80;;;;;;;;;;3346591;42;20143;-60
2022/10/02 02:08:18;;;;;;;13.27;2.80;;;;;;;;;;3348427;42;20156;-60
2022/10/02 02:11:03;;;;;;;9.20;2.63;;;;;;;;;;3345543;42;20157;-59
2022/10/02 02:14:00;;;;;;;7.00;2.42;;;;;;;;;;3346274;42;20084;-61
2022/10/02 02:16:47;;;;;;;9.90;2.80;;;;;;;;;;3346131;42;20568;-63
2022/10/02 02:19:23;;;;;;;9.93;2.65;;;;;;;;;;3346648;42;20144;-60
2022/10/02 02:21:59;;;;;;;11.15;2.70;;;;;;;;;;3346851;42;20089;-64
2022/10/02 02:24:31;;;;;;;9.93;2.53;;;;;;;;;;3348000;42;20171;-60
2022/10/02 02:26:58;;;;;;;10.40;2.53;;;;;;;;;;3346883;42;20131;-61
2022/10/02 02:29:24;;;;;;;8.10;2.40;;;;;;;;;;3348513;42;20104;-60
2022/10/02 02:31:51;;;;;;;6.50;2.10;;;;;;;;;;3348386;42;20089;-60
2022/10/02 02:34:21;;;;;;;8.15;2.33;;;;;;;;;;3348247;42;20107;-63
2022/10/02 02:36:50;;;;;;;7.85;2.30;;;;;;;;;;3345089;42;20152;-60
2022/10/02 02:39:20;;;;;;;14.68;2.72;;;;;;;;;;3340962;42;20556;-60
2022/10/02 02:41:51;;;;;;;10.20;2.53;;;;;;;;;;3348413;42;20100;-60
2022/10/02 02:44:19;;;;;;;7.15;2.50;;;;;;;;;;3348080;42;20093;-61
2022/10/02 02:47:10;;;;;;;8.65;2.10;;;;;;;;;;3349401;42;20099;-60
2022/10/02 02:49:51;;;;;;;9.48;2.42;;;;;;;;;;3348244;42;20171;-61
2022/10/02 02:52:37;;;;;;;8.07;2.40;;;;;;;;;;3349303;42;20144;-60
2022/10/02 02:55:40;;;;;;;9.20;2.37;;;;;;;;;;3349945;42;20140;-62
2022/10/02 02:58:40;;;;;;;10.85;2.67;;;;;;;;;;3342457;42;20097;-61
2022/10/02 03:01:06;;;;;;;9.05;2.45;;;;;;;;;;3346674;42;20097;-61
2022/10/02 03:03:32;;;;;;;10.93;2.38;;;;;;;;;;3347651;42;20510;-61
2022/10/02 03:06:37;;;;;;;9.82;2.38;;;;;;;;;;3349357;42;20099;-60
2022/10/02 03:09:07;;;;;;;9.07;2.30;;;;;;;;;;3346184;42;20189;-60
2022/10/02 03:12:00;;;;;;;7.70;2.00;;;;;;;;;;3347788;42;20195;-59
2022/10/02 03:14:51;;;;;;;9.98;2.15;;;;;;;;;;3349025;42;20089;-62
2022/10/02 03:17:42;;;;;;;9.02;2.53;;;;;;;;;;3339937;42;20191;-60
2022/10/02 03:20:23;;;;;;;9.07;2.40;;;;;;;;;;3348121;42;20156;-60
2022/10/02 03:23:10;;;;;;;8.40;2.37;;;;;;;;;;3349163;42;20107;-59
2022/10/02 03:25:49;;;;;;;10.18;2.25;;;;;;;;;;3350477;42;20170;-61
2022/10/02 03:28:22;;;;;;;8.55;2.70;;;;;;;;;;3345305;42;20095;-61
2022/10/02 03:30:48;;;;;;;10.45;2.35;;;;;;;;;;3348053;42;20084;-60
2022/10/02 03:33:14;;;;;;;9.95;2.30;;;;;;;;;;3347632;42;20554;-60
2022/10/02 03:35:41;;;;;;;12.53;2.90;;;;;;;;;;3340330;42;20562;-62
2022/10/02 03:38:08;;;;;;;12.85;2.78;;;;;;;;;;3347810;42;20168;-61
2022/10/02 03:40:34;;;;;;;6.40;2.13;;;;;;;;;;3338355;42;20100;-60
2022/10/02 03:43:00;;;;;;;7.78;2.45;;;;;;;;;;3349123;42;20081;-62
2022/10/02 03:45:27;;;;;;;8.07;2.40;;;;;;;;;;3348868;42;20093;-61
2022/10/02 03:47:52;;;;;;;8.90;2.28;;;;;;;;;;3349085;42;20640;-62
2022/10/02 03:50:19;;;;;;;9.52;2.30;;;;;;;;;;3349309;42;20081;-61
2022/10/02 03:52:45;;;;;;;9.63;2.30;;;;;;;;;;3347668;42;20108;-60
2022/10/02 03:55:10;;;;;;;10.30;2.20;;;;;;;;;;3347743;42;20084;-61
2022/10/02 03:57:36;;;;;;;11.07;2.35;;;;;;;;;;3348837;42;20174;-59
2022/10/02 04:00:08;;;;;;;9.07;2.20;;;;;;;;;;3348975;42;20551;-63
2022/10/02 04:02:56;;;;;;;10.35;2.22;;;;;;;;;;3340195;42;20607;-61
2022/10/02 04:05:28;;;;;;;8.37;2.60;;;;;;;;;;3349392;42;20119;-62
2022/10/02 04:07:56;;;;;;;10.07;2.20;;;;;;;;;;3343183;42;20167;-60
2022/10/02 04:10:31;;;;;;;8.95;2.30;;;;;;;;;;3342477;42;20147;-59
2022/10/02 04:13:17;;;;;;;9.32;2.45;;;;;;;;;;3343796;42;20103;-60
2022/10/02 04:16:12;;;;;;;9.60;2.45;;;;;;;;;;3352743;42;20127;-61
2022/10/02 04:18:47;;;;;;;10.87;2.57;;;;;;;;;;3350679;42;20088;-63
2022/10/02 04:21:29;;;;;;;7.70;2.20;;;;;;;;;;3349899;42;20088;-61
2022/10/02 04:23:58;;;;;;;13.68;2.50;;;;;;;;;;3352896;42;20143;-61
2022/10/02 04:26:29;;;;;;;8.38;2.47;;;;;;;;;;3347231;42;20616;-61
2022/10/02 04:29:20;;;;;;;12.32;2.50;;;;;;;;;;3340143;42;20123;-59
2022/10/02 04:31:58;;;;;;;10.67;2.33;;;;;;;;;;3344660;42;20097;-61
2022/10/02 04:34:25;;;;;;;13.52;2.38;;;;;;;;;;3344512;42;20104;-59
2022/10/02 04:37:17;;;;;;;9.68;2.45;;;;;;;;;;3346539;42;20565;-61
2022/10/02 04:39:53;;;;;;;9.30;3.08;;;;;;;;;;3346357;42;20084;-61
2022/10/02 04:42:47;;;;;;;8.15;2.03;;;;;;;;;;3347088;42;20168;-61
2022/10/02 04:45:18;;;;;;;7.73;2.20;;;;;;;;;;3346999;42;20626;-59
2022/10/02 04:48:20;;;;;;;8.98;2.33;;;;;;;;;;3349427;42;20195;-60
2022/10/02 04:51:04;;;;;;;8.95;2.40;;;;;;;;;;3339516;42;20093;-62
2022/10/02 04:53:29;;;;;;;9.65;2.40;;;;;;;;;;3345768;42;20135;-61
2022/10/02 04:56:14;;;;;;;10.27;2.60;;;;;;;;;;3348784;42;20081;-63
2022/10/02 04:58:58;;;;;;;11.23;2.25;;;;;;;;;;3346970;42;20085;-64
2022/10/02 05:01:49;;;;;;;8.43;2.20;;;;;;;;;;3346370;42;20093;-62
2022/10/02 05:04:52;;;;;;;11.45;2.22;;;;;;;;;;3352862;42;20130;-62
2022/10/02 05:07:36;;;;;;;9.18;2.60;;;;;;;;;;3347201;42;20089;-61
2022/10/02 05:10:28;;;;;;;8.10;2.30;;;;;;;;;;3348452;42;20140;-63
2022/10/02 05:12:57;;;;;;;8.43;2.10;;;;;;;;;;3346661;42;20499;-61
2022/10/02 05:15:45;;;;;;;10.88;2.35;;;;;;;;;;3347587;42;20188;-63
2022/10/02 05:18:35;;;;;;;13.07;2.20;;;;;;;;;;3347026;42;20156;-60
2022/10/02 05:21:03;;;;;;;10.27;2.53;;;;;;;;;;3346988;42;20092;-61
2022/10/02 05:23:50;;;;;;;8.53;2.20;;;;;;;;;;3348989;42;20144;-60
2022/10/02 05:26:37;;;;;;;8.13;2.17;;;;;;;;;;3347726;42;20076;-60
2022/10/02 05:29:27;;;;;;;7.50;2.10;;;;;;;;;;3345597;42;20087;-61
2022/10/02 05:32:16;;;;;;;8.40;2.15;;;;;;;;;;3346539;42;20105;-61
2022/10/02 05:34:47;;;;;;;11.82;2.60;;;;;;;;;;3346050;42;20480;-61
2022/10/02 05:37:38;;;;;;;8.73;2.23;;;;;;;;;;3346961;42;20132;-59
2022/10/02 05:40:31;;;;;;;8.60;2.17;;;;;;;;;;3352150;42;20097;-63
2022/10/02 05:43:04;;;;;;;12.05;2.60;;;;;;;;;;3345169;42;20553;-63
2022/10/02 05:45:43;;;;;;;9.75;2.00;;;;;;;;;;3348726;42;20638;-61
2022/10/02 05:48:23;;;;;;;9.75;2.00;;;;;;;;;;3346607;42;20088;-62
2022/10/02 05:50:52;;;;;;;10.30;2.60;;;;;;;;;;3338492;42;20539;-59
2022/10/02 05:53:30;;;;;;;10.05;2.15;;;;;;;;;;3337999;42;20128;-59
2022/10/02 05:55:59;;;;;;;10.40;2.10;;;;;;;;;;3343050;42;20149;-63
2022/10/02 05:58:30;;;;;;;10.32;2.40;;;;;;;;;;3348388;42;20103;-60
2022/10/02 06:00:58;;;;;;;10.00;2.50;;;;;;;;;;3341257;42;20136;-60
2022/10/02 06:03:37;;;;;;;9.07;2.30;;;;;;;;;;3350620;42;20080;-61
2022/10/02 06:06:18;;;;;;;7.65;1.95;;;;;;;;;;3349550;42;20155;-58
2022/10/02 06:09:09;;;;;;;7.80;2.08;;;;;;;;;;3350670;42;20089;-62
2022/10/02 06:11:36;;;;;;;6.80;2.38;;;;;;;;;;3338818;42;20156;-62
2022/10/02 06:14:22;;;;;;;9.57;2.67;;;;;;;;;;3349241;42;20097;-61
2022/10/02 06:16:55;;;;;;;10.10;2.33;;;;;;;;;;3353583;42;20824;-60
2022/10/02 06:19:31;;;;;;;7.80;2.50;;;;;;;;;;3348039;42;20128;-57
2022/10/02 06:22:06;;;;;;;10.80;2.75;;;;;;;;;;3347121;42;20088;-59
2022/10/02 06:24:56;;;;;;;8.90;2.13;;;;;;;;;;3353646;42;20088;-60
2022/10/02 06:27:47;;;;;;;10.57;2.55;;;;;;;;;;3347324;42;20144;-62
2022/10/02 06:30:16;;;;;;;7.17;2.20;;;;;;;;;;3347390;42;20098;-60
2022/10/02 06:33:02;;;;;;;7.80;2.78;;;;;;;;;;3347182;42;20151;-63
2022/10/02 06:35:58;;;;;;;11.65;3.10;;;;;;;;;;3345858;42;20088;-59
2022/10/02 06:38:34;;;;;;;7.80;2.17;;;;;;;;;;3348206;42;20208;-61
2022/10/02 06:41:12;;;;;;;8.35;2.30;;;;;;;;;;3350607;42;20131;-63
2022/10/02 06:44:06;;;;;;;12.10;3.20;;;;;;;;;;3352137;42;20093;-61
2022/10/02 06:46:59;;;;;;;9.30;2.40;;;;;;;;;;3352722;42;20123;-60
2022/10/02 06:49:56;;;;;;;8.57;2.70;;;;;;;;;;3350091;42;20095;-62
2022/10/02 06:52:40;;;;;;;11.23;2.78;;;;;;;;;;3347149;42;20591;-61
2022/10/02 06:55:34;;;;;;;8.95;2.58;;;;;;;;;;3348274;42;20093;-64
2022/10/02 06:58:07;;;;;;;9.73;2.53;;;;;;;;;;3347976;42;20548;-61
2022/10/02 07:00:36;;;;;;;7.22;2.78;;;;;;;;;;3347771;42;20500;-60
2022/10/02 07:03:41;;;;;;;10.32;2.60;;;;;;;;;;3340772;42;20080;-60
2022/10/02 07:06:15;;;;;;;6.35;2.17;;;;;;;;;;3348146;42;20165;-59
2022/10/02 07:09:03;;;;;;;8.35;2.78;;;;;;;;;;3349744;42;20108;-63
2022/10/02 07:11:34;;;;;;;8.10;2.70;;;;;;;;;;3347775;42;20163;-61
2022/10/02 07:14:15;;;;;;;10.15;2.50;;;;;;;;;;3347706;42;20113;-60
2022/10/02 07:16:47;;;;;;;10.35;3.13;;;;;;;;;;3345226;42;20096;-61
2022/10/02 07:19:32;;;;;;;9.27;2.50;;;;;;;;;;3350307;42;20117;-62
2022/10/02 07:22:13;;;;;;;7.95;2.60;;;;;;;;;;3347712;42;20112;-62
2022/10/02 07:25:16;;;;;;;11.63;2.57;;;;;;;;;;3347440;42;20098;-64
2022/10/02 07:27:50;;;;;;;8.00;2.80;;;;;;;;;;3346035;42;20104;-60
2022/10/02 07:30:16;;;;;;;8.68;2.60;;;;;;;;;;3349370;42;20121;-63
2022/10/02 07:32:52;;;;;;;8.48;2.40;;;;;;;;;;3350425;42;20487;-60
2022/10/02 07:35:27;;;;;;;11.07;2.90;;;;;;;;;;3351610;42;20097;-61
2022/10/02 07:38:12;;;;;;;7.90;2.60;;;;;;;;;;3353835;42;20093;-63
2022/10/02 07:40:58;;;;;;;9.13;2.90;;;;;;;;;;3354527;42;20599;-62
2022/10/02 07:43:32;;;;;;;8.82;2.60;;;;;;;;;;3351981;42;20099;-61
2022/10/02 07:46:19;;;;;;;8.77;2.40;;;;;;;;;;3350840;42;20543;-59
2022/10/02 07:49:00;;;;;;;8.57;2.97;;;;;;;;;;3351332;42;20151;-60
2022/10/02 07:51:52;;;;;;;7.43;2.30;;;;;;;;;;3348311;42;20089;-64
2022/10/02 07:54:18;;;;;;;8.40;2.80;;;;;;;;;;3344845;42;20084;-64
2022/10/02 07:56:44;;;;;;;10.90;2.85;;;;;;;;;;3349497;42;20096;-62
2022/10/02 07:59:11;;;;;;;9.82;2.70;;;;;;;;;;3348174;42;20095;-62
2022/10/02 08:01:39;;;;;;;7.47;2.60;;;;;;;;;;3339542;42;20143;-62
2022/10/02 08:04:25;;;;;;;8.13;2.33;;;;;;;;;;3347071;42;20152;-60
2022/10/02 08:06:54;;;;;;;11.38;3.15;;;;;;;;;;3347902;42;20182;-64
2022/10/02 08:09:22;;;;;;;11.18;2.95;;;;;;;;;;3339405;42;20212;-63
2022/10/02 08:12:14;;;;;;;12.40;2.90;;;;;;;;;;3346693;42;20168;-63
2022/10/02 08:14:41;;;;;;;10.80;2.58;;;;;;;;;;3347120;42;20148;-61
2022/10/02 08:17:26;;;;;;;11.10;2.60;;;;;;;;;;3348387;42;20479;-62
2022/10/02 08:19:52;;;;;;;8.55;2.63;;;;;;;;;;3349469;42;20092;-62
2022/10/02 08:22:40;;;;;;;10.10;2.60;;;;;;;;;;3347017;42;20111;-62
2022/10/02 08:25:20;;;;;;;7.68;2.70;;;;;;;;;;3346731;42;20095;-60
2022/10/02 08:28:02;;;;;;;10.68;2.72;;;;;;;;;;3345797;42;20096;-63
2022/10/02 08:30:28;;;;;;;8.40;2.87;;;;;;;;;;3349326;42;20115;-62
2022/10/02 08:32:54;;;;;;;9.40;2.72;;;;;;;;;;3348245;42;20528;-60
2022/10/02 08:35:20;;;;;;;9.82;3.03;;;;;;;;;;3348291;42;20077;-61
2022/10/02 08:38:03;;;;;;;8.75;2.78;;;;;;;;;;3348151;42;20563;-63
2022/10/02 08:40:41;;;;;;;9.83;2.90;;;;;;;;;;3349182;42;20140;-61
2022/10/02 08:43:29;;;;;;;10.05;3.22;;;;;;;;;;3347913;42;20091;-61
2022/10/02 08:46:10;;;;;;;10.27;3.13;;;;;;;;;;3347966;42;20166;-60
2022/10/02 08:48:57;;;;;;;10.07;2.90;;;;;;;;;;3347879;42;20100;-61
2022/10/02 08:51:55;;;;;;;9.65;3.05;;;;;;;;;;3348110;42;20085;-62
2022/10/02 08:54:24;;;;;;;12.10;3.00;;;;;;;;;;3343356;42;20666;-61
2022/10/02 08:57:12;;;;;;;7.65;3.03;;;;;;;;;;3345599;42;20097;-62
2022/10/02 08:59:44;;;;;;;9.63;2.88;;;;;;;;;;3347966;42;20172;-61
2022/10/02 09:02:45;;;;;;;8.13;3.10;;;;;;;;;;3349297;42;20092;-61
2022/10/02 09:05:38;;;;;;;10.23;2.80;;;;;;;;;;3351634;42;20093;-60
2022/10/02 09:08:10;;;;;;;10.87;3.20;;;;;;;;;;3351584;42;20148;-62
2022/10/02 09:11:01;;;;;;;13.25;3.65;;;;;;;;;;3348728;42;20212;-60
2022/10/02 09:13:49;;;;;;;7.95;3.15;;;;;;;;;;3352344;42;20379;-63
2022/10/02 09:16:28;;;;;;;9.57;3.00;;;;;;;;;;3347544;42;20181;-63
2022/10/02 09:19:18;;;;;;;9.27;3.20;;;;;;;;;;3345376;42;20104;-64
2022/10/02 09:21:51;;;;;;;10.07;3.57;;;;;;;;;;3347772;42;20497;-62
2022/10/02 09:24:55;;;;;;;11.00;3.60;;;;;;;;;;3347592;42;20167;-65
2022/10/02 09:27:51;;;;;;;8.15;3.10;;;;;;;;;;3345978;42;20104;-62
2022/10/02 09:30:53;;;;;;;8.88;2.90;;;;;;;;;;3344964;42;20100;-63
2022/10/02 09:33:38;;;;;;;10.07;3.45;;;;;;;;;;3345855;42;20100;-62
2022/10/02 09:36:23;;;;;;;8.53;3.23;;;;;;;;;;3348931;42;20088;-62
2022/10/02 09:39:13;;;;;;;10.23;3.40;;;;;;;;;;3347231;42;20562;-62
2022/10/02 09:41:46;;;;;;;11.10;3.58;;;;;;;;;;3347492;42;20123;-66
2022/10/02 09:44:42;;;;;;;10.57;3.45;;;;;;;;;;3347683;42;20171;-63
2022/10/02 09:47:29;;;;;;;11.15;3.47;;;;;;;;;;3351400;42;20085;-63
2022/10/02 09:50:32;;;;;;;8.67;3.27;;;;;;;;;;3347723;42;20092;-63
2022/10/02 09:53:14;;;;;;;8.38;3.33;;;;;;;;;;3347087;42;20089;-62
2022/10/02 09:56:02;;;;;;;9.40;3.30;;;;;;;;;;3346266;42;20093;-62
2022/10/02 09:59:07;;;;;;;10.55;3.60;;;;;;;;;;3346388;42;20611;-60
2022/10/02 10:01:58;;;;;;;14.77;3.90;;;;;;;;;;3337681;42;20093;-61
2022/10/02 10:04:33;;;;;;;13.13;4.33;;;;;;;;;;3347845;42;20599;-63
2022/10/02 10:07:26;;;;;;;11.70;4.18;;;;;;;;;;3348436;42;20097;-60
2022/10/02 10:09:58;;;;;;;9.60;3.90;;;;;;;;;;3346417;42;20140;-63
2022/10/02 10:12:59;;;;;;;12.18;3.38;;;;;;;;;;3347572;42;20141;-63
2022/10/02 10:15:37;;;;;;;11.77;4.00;;;;;;;;;;3345860;42;20119;-62
2022/10/02 10:18:41;;;;;;;10.30;4.17;;;;;;;;;;3348734;42;20177;-62
2022/10/02 10:21:26;;;;;;;11.63;4.25;;;;;;;;;;3346225;42;20128;-61
2022/10/02 10:24:07;;;;;;;10.98;4.00;;;;;;;;;;3348202;42;20097;-60
2022/10/02 10:26:56;;;;;;;11.10;4.32;;;;;;;;;;3348560;42;20097;-61
2022/10/02 10:29:46;;;;;;;11.00;4.32;;;;;;;;;;3346013;42;20115;-63
2022/10/02 10:32:31;;;;;;;9.87;4.17;;;;;;;;;;3347473;42;20080;-61
2022/10/02 10:35:05;;;;;;;13.40;4.53;;;;;;;;;;3348333;42;20166;-61
2022/10/02 10:41:09;;;;;;;12.52;4.15;;;;;;;;;;3336878;42;20101;-60
2022/10/02 10:44:05;;;;;;;11.35;4.13;;;;;;;;;;3334184;42;20244;-62
2022/10/02 10:46:58;;;;;;;10.03;4.00;;;;;;;;;;3345378;42;20084;-61
2022/10/02 10:49:48;;;;;;;11.63;4.28;;;;;;;;;;3353782;42;20786;-64
2022/10/02 10:52:24;;;;;;;9.15;4.00;;;;;;;;;;3343665;42;20085;-62
2022/10/02 10:54:54;;;;;;;11.95;3.60;;;;;;;;;;3336867;42;20161;-67
2022/10/02 10:57:44;;;;;;;9.68;4.10;;;;;;;;;;3347696;42;20124;-63
2022/10/02 11:00:29;;;;;;;10.50;4.23;;;;;;;;;;3347746;42;20511;-61
2022/10/02 11:03:28;;;;;;;11.60;3.75;;;;;;;;;;3346120;42;20108;-63
2022/10/02 11:06:12;;;;;;;11.95;4.43;;;;;;;;;;3348707;42;20574;-62
2022/10/02 11:08:42;;;;;;;11.75;4.50;;;;;;;;;;3349015;42;20133;-62
2022/10/02 11:11:07;;;;;;;10.93;4.25;;;;;;;;;;3349729;42;20092;-62
2022/10/02 11:13:49;;;;;;;11.00;4.47;;;;;;;;;;3348630;42;20088;-61
2022/10/02 11:16:42;;;;;;;11.48;4.07;;;;;;;;;;3347703;42;20334;-61
2022/10/02 11:19:25;;;;;;;11.13;4.28;;;;;;;;;;3341603;42;20088;-61
2022/10/02 11:22:23;;;;;;;11.48;4.60;;;;;;;;;;3347029;42;20081;-60
2022/10/02 11:25:18;;;;;;;13.27;4.83;;;;;;;;;;3349484;42;20084;-60
2022/10/02 11:28:02;;;;;;;12.23;4.53;;;;;;;;;;3345380;42;20091;-60
2022/10/02 11:30:37;;;;;;;11.32;4.65;;;;;;;;;;3347445;42;20570;-62
2022/10/02 11:33:18;;;;;;;11.32;4.82;;;;;;;;;;3346899;42;20491;-60
2022/10/02 11:35:53;;;;;;;11.65;5.43;;;;;;;;;;3348421;42;20543;-64
2022/10/02 11:38:31;;;;;;;12.17;4.90;;;;;;;;;;3346606;42;20168;-62
2022/10/02 11:41:16;;;;;;;14.93;5.50;;;;;;;;;;3348757;42;20136;-61
2022/10/02 11:44:01;;;;;;;11.93;5.22;;;;;;;;;;3347677;42;20575;-64
2022/10/02 11:46:51;;;;;;;13.60;5.80;;;;;;;;;;3348743;42;20136;-61
2022/10/02 11:49:37;;;;;;;14.77;5.70;;;;;;;;;;3350375;42;20140;-62
2022/10/02 11:52:21;;;;;;;12.77;5.50;;;;;;;;;;3348686;42;20564;-63
2022/10/02 11:55:13;;;;;;;15.63;6.47;;;;;;;;;;3348864;42;20623;-62
2022/10/02 11:58:09;;;;;;;16.52;7.63;;;;;;;;;;3346131;42;20687;-63
2022/10/02 12:01:09;;;;;;;15.25;6.70;;;;;;;;;;3347270;42;20085;-62
2022/10/02 12:04:11;;;;;;;15.63;6.55;;;;;;;;;;3347599;42;20087;-61
2022/10/02 12:06:59;;;;;;;13.20;5.67;;;;;;;;;;3346011;42;20127;-65
2022/10/02 12:09:53;;;;;;;13.88;6.25;;;;;;;;;;3344552;42;20141;-61
2022/10/02 12:12:38;;;;;;;13.02;5.97;;;;;;;;;;3346198;42;20533;-63
2022/10/02 12:15:21;;;;;;;13.38;6.35;;;;;;;;;;3349177;42;20937;-61
2022/10/02 12:18:05;;;;;;;12.20;5.78;;;;;;;;;;3349407;42;20093;-61
2022/10/02 12:29:33;;;;;;;12.80;6.22;;;;;;;;;;3346806;42;20092;-63
2022/10/02 12:32:22;;;;;;;13.77;6.05;;;;;;;;;;3346774;42;20093;-63
2022/10/02 12:35:06;;;;;;;13.10;6.17;;;;;;;;;;3346876;42;20898;-64
2022/10/02 12:37:41;;;;;;;13.98;5.78;;;;;;;;;;3347526;42;20095;-63
2022/10/02 12:40:40;;;;;;;13.10;6.03;;;;;;;;;;3346271;42;20095;-63
2022/10/02 12:43:43;;;;;;;12.27;5.88;;;;;;;;;;3346906;42;20176;-62
2022/10/02 12:46:20;;;;;;;16.52;6.20;;;;;;;;;;3346518;42;20081;-61
2022/10/02 12:48:56;;;;;;;13.80;6.30;;;;;;;;;;3346818;42;20128;-63
2022/10/02 12:51:40;;;;;;;13.73;6.85;;;;;;;;;;3343643;42;20135;-62
2022/10/02 12:54:21;;;;;;;14.10;6.03;;;;;;;;;;3345525;42;20694;-58
2022/10/02 13:00:15;;;;;;;12.98;5.80;;;;;;;;;;3346710;42;20076;-63
2022/10/02 13:03:04;;;;;;;13.87;6.23;;;;;;;;;;3346874;42;20140;-61
2022/10/02 13:06:02;;;;;;;16.08;5.90;;;;;;;;;;3348554;42;20127;-63
2022/10/02 13:09:02;;;;;;;13.13;5.70;;;;;;;;;;3347382;42;20176;-61
2022/10/02 13:11:32;;;;;;;14.15;6.38;;;;;;;;;;3348258;42;20085;-64
2022/10/02 13:14:22;;;;;;;14.43;6.50;;;;;;;;;;3349297;42;20097;-63
2022/10/02 13:17:16;;;;;;;14.17;5.93;;;;;;;;;;3346361;42;20444;-61
2022/10/02 13:20:03;;;;;;;13.13;5.50;;;;;;;;;;3346740;42;20088;-60
2022/10/02 13:22:59;;;;;;;14.55;5.65;;;;;;;;;;3346510;42;20134;-60
2022/10/02 13:25:56;;;;;;;11.65;5.32;;;;;;;;;;3347669;42;20495;-62
2022/10/02 13:28:32;;;;;;;12.85;6.05;;;;;;;;;;3340415;42;20093;-60
2022/10/02 13:31:20;;;;;;;12.47;5.80;;;;;;;;;;3343235;42;20577;-64
2022/10/02 13:34:05;;;;;;;12.10;5.57;;;;;;;;;;3347975;42;20278;-59
2022/10/02 13:37:24;;;;;;;12.38;5.53;;;;;;;;;;3344213;42;20096;-61
2022/10/02 13:39:52;;;;;;;11.68;5.28;;;;;;;;;;3335055;42;20665;-60
2022/10/02 13:42:25;;;;;;;12.50;5.20;;;;;;;;;;3346633;42;20099;-59
2022/10/02 13:45:30;;;;;;;12.27;5.40;;;;;;;;;;3346159;42;20100;-60
2022/10/02 13:47:58;;;;;;;12.48;5.22;;;;;;;;;;3346897;42;20096;-61
2022/10/02 13:50:46;;;;;;;11.00;5.82;;;;;;;;;;3349009;42;20120;-62
2022/10/02 13:53:27;;;;;;;11.70;5.68;;;;;;;;;;3347861;42;20136;-62
2022/10/02 13:56:21;;;;;;;12.98;5.70;;;;;;;;;;3348947;42;20092;-60
2022/10/02 13:59:10;;;;;;;13.07;5.80;;;;;;;;;;3346566;42;20132;-60
2022/10/02 14:01:59;;;;;;;12.48;5.45;;;;;;;;;;3345788;42;20093;-62
2022/10/02 14:04:36;;;;;;;12.45;5.38;;;;;;;;;;3344276;42;20136;-61
2022/10/02 14:07:24;;;;;;;10.88;5.32;;;;;;;;;;3347724;42;20102;-62
2022/10/02 14:09:59;;;;;;;16.63;6.07;;;;;;;;;;3347544;42;20196;-61
2022/10/02 14:12:45;;;;;;;12.17;6.00;;;;;;;;;;3348715;42;20151;-61
2022/10/02 14:15:19;;;;;;;12.45;4.82;;;;;;;;;;3347656;42;20559;-60
2022/10/02 14:17:47;;;;;;;11.90;5.00;;;;;;;;;;3346771;42;20234;-64
2022/10/02 14:20:28;;;;;;;14.75;5.40;;;;;;;;;;3350192;42;20093;-59
2022/10/02 14:23:18;;;;;;;12.57;5.30;;;;;;;;;;3349551;42;20092;-62
2022/10/02 14:25:51;;;;;;;12.33;5.33;;;;;;;;;;3347997;42;20468;-62
2022/10/02 14:28:23;;;;;;;14.52;5.10;;;;;;;;;;3348081;42;20103;-61
2022/10/02 14:31:10;;;;;;;12.02;4.45;;;;;;;;;;3350703;42;20093;-59
2022/10/02 14:34:07;;;;;;;9.82;4.53;;;;;;;;;;3346081;42;20085;-64
2022/10/02 14:37:02;;;;;;;10.57;5.25;;;;;;;;;;3340524;42;20088;-61
2022/10/02 14:39:38;;;;;;;12.20;4.10;;;;;;;;;;3342736;42;20615;-59
2022/10/02 14:42:36;;;;;;;11.63;4.18;;;;;;;;;;3347770;42;20179;-62
2022/10/02 14:45:10;;;;;;;11.98;5.22;;;;;;;;;;3349375;42;20551;-63
2022/10/02 14:47:47;;;;;;;10.43;4.20;;;;;;;;;;3347475;42;20089;-61
2022/10/02 14:50:23;;;;;;;11.05;4.63;;;;;;;;;;3349084;42;20138;-63
2022/10/02 14:53:48;;;;;;;9.47;3.93;;;;;;;;;;3350003;42;20085;-61
2022/10/02 14:56:37;;;;;;;8.85;3.63;;;;;;;;;;3337759;42;20140;-61
2022/10/02 14:59:16;;;;;;;9.48;4.03;;;;;;;;;;3328491;42;20159;-62
2022/10/02 15:02:33;;;;;;;10.77;3.70;;;;;;;;;;3341247;42;20215;-62
2022/10/02 15:05:23;;;;;;;13.32;3.83;;;;;;;;;;3346808;42;20097;-61
2022/10/02 15:07:49;;;;;;;11.67;3.60;;;;;;;;;;3347840;42;20084;-63
2022/10/02 15:10:21;;;;;;;8.15;3.58;;;;;;;;;;3340595;42;20159;-61
2022/10/02 15:13:19;;;;;;;10.55;3.58;;;;;;;;;;3348850;42;20160;-60
2022/10/02 15:19:15;;;;;;;9.60;3.75;;;;;;;;;;3348913;42;20167;-62
2022/10/02 15:21:51;;;;;;;9.47;3.73;;;;;;;;;;3345962;42;20514;-59
2022/10/02 15:24:28;;;;;;;11.93;3.92;;;;;;;;;;3347470;42;20607;-60
2022/10/02 15:27:31;;;;;;;8.40;3.40;;;;;;;;;;3349209;42;20563;-63
2022/10/02 15:30:04;;;;;;;8.77;3.80;;;;;;;;;;3346207;42;20100;-61
2022/10/02 15:32:30;;;;;;;10.98;3.60;;;;;;;;;;3347524;42;20677;-61
2022/10/02 15:35:15;;;;;;;13.00;3.53;;;;;;;;;;3349171;42;20187;-60
2022/10/02 15:37:49;;;;;;;8.60;4.03;;;;;;;;;;3347454;42;20163;-61
2022/10/02 15:40:28;;;;;;;8.35;3.38;;;;;;;;;;3348765;42;20089;-61
2022/10/02 15:43:14;;;;;;;10.60;3.65;;;;;;;;;;3348290;42;20749;-61
2022/10/02 15:45:49;;;;;;;11.47;3.90;;;;;;;;;;3347524;42;20527;-63
2022/10/02 15:48:41;;;;;;;8.85;4.10;;;;;;;;;;3348747;42;20140;-63
2022/10/02 15:51:10;;;;;;;8.55;3.35;;;;;;;;;;3347393;42;20097;-62
2022/10/02 15:53:36;;;;;;;8.23;3.70;;;;;;;;;;3347831;42;20203;-61
2022/10/02 15:56:02;;;;;;;9.95;3.40;;;;;;;;;;3349660;42;20554;-62
2022/10/02 15:59:01;;;;;;;9.20;3.67;;;;;;;;;;3348142;42;20088;-63
2022/10/02 16:01:49;;;;;;;8.57;3.90;;;;;;;;;;3343777;42;20093;-60
2022/10/02 16:04:30;;;;;;;14.55;4.20;;;;;;;;;;3344649;42;20100;-63
2022/10/02 16:07:33;;;;;;;9.32;3.60;;;;;;;;;;3346595;42;20092;-63
2022/10/02 16:10:18;;;;;;;7.93;3.30;;;;;;;;;;3346943;42;20097;-64
2022/10/02 16:12:56;;;;;;;11.68;3.63;;;;;;;;;;3349381;42;20600;-62
2022/10/02 16:15:27;;;;;;;9.73;3.38;;;;;;;;;;3346837;42;20104;-63
2022/10/02 16:18:18;;;;;;;10.30;3.58;;;;;;;;;;3340172;42;20140;-62